Time;durP1;ratioP1;P1;durP2;ratioP2;P2;SDS_P1;SDS_P2;PMS_P1;PMS_P2;Temp;Humidity;BMP_temperature;BMP_pressure;BME280_temperature;BME280_humidity;BME280_pressure;Samples;Min_cycle;Max_cycle;Signal;HPM_P1;HPM_P2
2022/12/31 00:00:24;;;;;;;6.17;1.67;;;;;;;;;;4978769;28;20257;-91
2022/12/31 00:02:59;;;;;;;0.60;0.60;;;;;;;;;;4978778;28;20212;-94
2022/12/31 00:05:35;;;;;;;8.40;1.30;;;;;;;;;;4978423;28;20283;-92
2022/12/31 00:10:51;;;;;;;1.70;1.20;;;;;;;;;;4977474;28;20230;-92
2022/12/31 00:13:24;;;;;;;3.70;1.63;;;;;;;;;;4978015;28;20229;-92
2022/12/31 00:16:12;;;;;;;0.80;0.80;;;;;;;;;;4978627;28;20218;-93
2022/12/31 00:21:39;;;;;;;0.83;0.83;;;;;;;;;;4954846;28;20191;-92
2022/12/31 00:24:11;;;;;;;0.83;0.80;;;;;;;;;;4982864;28;20261;-92
2022/12/31 00:26:46;;;;;;;4.70;1.87;;;;;;;;;;4983814;28;20198;-92
2022/12/31 00:29:14;;;;;;;5.60;2.77;;;;;;;;;;4984101;28;20193;-93
2022/12/31 00:31:54;;;;;;;2.00;1.90;;;;;;;;;;4981838;28;20644;-92
2022/12/31 00:34:24;;;;;;;1.13;1.13;;;;;;;;;;4991230;28;20213;-93
2022/12/31 00:36:53;;;;;;;2.37;2.17;;;;;;;;;;4988479;28;20234;-90
2022/12/31 00:39:29;;;;;;;1.73;1.03;;;;;;;;;;4995535;28;20198;-93
2022/12/31 00:42:15;;;;;;;1.13;0.67;;;;;;;;;;4996733;28;20205;-93
2022/12/31 00:44:51;;;;;;;3.87;1.60;;;;;;;;;;4995738;28;20230;-92
2022/12/31 00:47:29;;;;;;;0.97;0.97;;;;;;;;;;4994986;28;20303;-91
2022/12/31 00:50:02;;;;;;;4.30;1.83;;;;;;;;;;4997487;28;20186;-91
2022/12/31 00:52:38;;;;;;;2.23;2.13;;;;;;;;;;4998795;28;20228;-92
2022/12/31 00:55:12;;;;;;;1.70;1.47;;;;;;;;;;4993154;28;20198;-92
2022/12/31 00:57:52;;;;;;;1.40;1.40;;;;;;;;;;4992452;28;20201;-93
2022/12/31 01:00:30;;;;;;;1.33;1.33;;;;;;;;;;4993365;28;20209;-93
2022/12/31 01:03:20;;;;;;;1.17;1.17;;;;;;;;;;4993539;28;20237;-90
2022/12/31 01:06:00;;;;;;;1.60;1.60;;;;;;;;;;4992797;28;20213;-94
2022/12/31 01:08:31;;;;;;;0.90;0.90;;;;;;;;;;4992116;28;20202;-90
2022/12/31 01:14:08;;;;;;;0.97;0.97;;;;;;;;;;4993485;28;20221;-93
2022/12/31 01:16:37;;;;;;;2.33;1.97;;;;;;;;;;4993292;28;20202;-91
2022/12/31 01:21:55;;;;;;;2.40;0.93;;;;;;;;;;4991759;28;20206;-90
2022/12/31 01:24:28;;;;;;;2.20;0.70;;;;;;;;;;4994400;28;20246;-92
2022/12/31 01:27:02;;;;;;;4.13;1.97;;;;;;;;;;4996421;28;20297;-92
2022/12/31 01:29:30;;;;;;;1.73;0.90;;;;;;;;;;4996528;28;20221;-91
2022/12/31 01:32:17;;;;;;;2.30;2.10;;;;;;;;;;4997240;28;20233;-94
2022/12/31 01:34:51;;;;;;;1.23;1.10;;;;;;;;;;4997873;28;20233;-92
2022/12/31 01:37:29;;;;;;;1.17;1.13;;;;;;;;;;4997923;28;20226;-92
2022/12/31 01:40:02;;;;;;;8.53;3.57;;;;;;;;;;4992162;28;20209;-91
2022/12/31 01:42:35;;;;;;;1.40;1.27;;;;;;;;;;4994986;28;20215;-93
2022/12/31 01:45:14;;;;;;;1.47;1.47;;;;;;;;;;4998127;28;20206;-92
2022/12/31 01:47:48;;;;;;;2.10;1.93;;;;;;;;;;4998245;28;20253;-93
2022/12/31 01:50:21;;;;;;;1.40;1.40;;;;;;;;;;4998038;28;20190;-93
2022/12/31 01:52:55;;;;;;;3.93;2.20;;;;;;;;;;4997855;28;20324;-93
2022/12/31 01:55:30;;;;;;;2.07;1.87;;;;;;;;;;4998086;28;20279;-93
2022/12/31 01:58:05;;;;;;;2.00;1.90;;;;;;;;;;4997751;28;20245;-92
2022/12/31 02:00:36;;;;;;;1.80;1.77;;;;;;;;;;4997647;28;20273;-92
2022/12/31 02:05:52;;;;;;;1.83;1.73;;;;;;;;;;4992726;28;20213;-93
2022/12/31 02:08:27;;;;;;;1.30;1.30;;;;;;;;;;4997765;28;20194;-92
2022/12/31 02:10:59;;;;;;;1.93;1.83;;;;;;;;;;4997920;28;20193;-92
2022/12/31 02:13:40;;;;;;;1.97;1.87;;;;;;;;;;4997043;28;20290;-91
2022/12/31 02:16:10;;;;;;;2.80;2.53;;;;;;;;;;4997485;28;20194;-92
2022/12/31 02:18:47;;;;;;;1.40;1.40;;;;;;;;;;4997390;28;20190;-92
2022/12/31 02:21:38;;;;;;;1.47;1.37;;;;;;;;;;4996874;28;20257;-91
2022/12/31 02:24:28;;;;;;;2.03;1.73;;;;;;;;;;4995757;28;20285;-93
2022/12/31 02:27:01;;;;;;;2.60;2.50;;;;;;;;;;4995950;28;20205;-90
2022/12/31 02:30:03;;;;;;;2.50;2.33;;;;;;;;;;4995756;28;20173;-91
2022/12/31 02:32:37;;;;;;;2.83;1.20;;;;;;;;;;4997382;28;20252;-92
2022/12/31 02:35:14;;;;;;;3.07;1.93;;;;;;;;;;4996815;28;20193;-93
2022/12/31 02:37:52;;;;;;;3.30;2.23;;;;;;;;;;4996102;28;20190;-91
2022/12/31 02:40:26;;;;;;;2.17;1.70;;;;;;;;;;4993635;28;20213;-91
2022/12/31 02:43:00;;;;;;;4.70;2.83;;;;;;;;;;4991286;28;20249;-93
2022/12/31 02:45:36;;;;;;;1.63;1.57;;;;;;;;;;4989087;28;20209;-91
2022/12/31 02:48:28;;;;;;;3.23;1.87;;;;;;;;;;4982118;28;20201;-92
2022/12/31 02:51:00;;;;;;;1.00;1.00;;;;;;;;;;4974523;28;20206;-92
2022/12/31 02:53:46;;;;;;;2.30;1.07;;;;;;;;;;4983467;28;20260;-92
2022/12/31 02:56:20;;;;;;;2.30;1.53;;;;;;;;;;4904797;29;20296;-93
2022/12/31 03:04:45;;;;;;;0.70;0.70;;;;;;;;;;4900016;29;20278;-92
2022/12/31 03:07:22;;;;;;;0.50;0.50;;;;;;;;;;4898863;29;20475;-93
2022/12/31 03:09:50;;;;;;;0.43;0.43;;;;;;;;;;4939906;28;20226;-91
2022/12/31 03:15:18;;;;;;;0.37;0.37;;;;;;;;;;4977645;28;20254;-92
2022/12/31 03:17:50;;;;;;;0.10;0.10;;;;;;;;;;4977652;28;20208;-93
2022/12/31 03:23:12;;;;;;;0.67;0.67;;;;;;;;;;4976828;28;20236;-91
2022/12/31 03:25:45;;;;;;;0.93;0.83;;;;;;;;;;4981441;28;20260;-92
2022/12/31 03:28:16;;;;;;;1.10;0.80;;;;;;;;;;4989009;28;20198;-93
2022/12/31 03:30:50;;;;;;;0.70;0.70;;;;;;;;;;4992232;28;20230;-94
2022/12/31 03:33:19;;;;;;;0.90;0.90;;;;;;;;;;4977446;28;20234;-92
2022/12/31 03:35:51;;;;;;;0.23;0.23;;;;;;;;;;4976620;28;20210;-92
2022/12/31 03:38:29;;;;;;;3.23;0.90;;;;;;;;;;4976900;28;20207;-92
2022/12/31 03:40:57;;;;;;;0.60;0.60;;;;;;;;;;4977473;28;20202;-93
2022/12/31 03:43:27;;;;;;;3.00;1.67;;;;;;;;;;4977247;28;20198;-92
2022/12/31 03:46:00;;;;;;;1.80;1.70;;;;;;;;;;4977393;28;20206;-93
2022/12/31 03:48:30;;;;;;;1.80;1.27;;;;;;;;;;4976617;28;20264;-92
2022/12/31 03:50:58;;;;;;;1.30;0.83;;;;;;;;;;4977583;28;20285;-91
2022/12/31 03:53:33;;;;;;;2.03;1.60;;;;;;;;;;4977516;28;20234;-91
2022/12/31 03:56:01;;;;;;;1.17;1.07;;;;;;;;;;4977900;28;20225;-91
2022/12/31 03:58:29;;;;;;;2.77;2.50;;;;;;;;;;4980263;28;20285;-92
2022/12/31 04:01:01;;;;;;;5.93;1.70;;;;;;;;;;4979681;28;20242;-93
2022/12/31 04:03:28;;;;;;;0.93;0.93;;;;;;;;;;4981243;28;20217;-92
2022/12/31 04:05:56;;;;;;;0.87;0.87;;;;;;;;;;4981294;28;20205;-91
2022/12/31 04:08:29;;;;;;;1.50;1.23;;;;;;;;;;4980440;28;20217;-93
2022/12/31 04:11:07;;;;;;;2.23;1.00;;;;;;;;;;4979878;28;20664;-93
2022/12/31 04:13:43;;;;;;;1.03;0.67;;;;;;;;;;4980047;28;20297;-94
2022/12/31 04:16:14;;;;;;;0.33;0.33;;;;;;;;;;4979761;28;20271;-93
2022/12/31 04:18:50;;;;;;;1.57;1.03;;;;;;;;;;4979738;28;20642;-94
2022/12/31 04:21:19;;;;;;;1.33;0.60;;;;;;;;;;4979978;28;20258;-92
2022/12/31 04:23:51;;;;;;;1.63;1.53;;;;;;;;;;4978979;28;20729;-91
2022/12/31 04:26:21;;;;;;;0.77;0.77;;;;;;;;;;4979081;28;20217;-92
2022/12/31 04:28:51;;;;;;;1.03;1.03;;;;;;;;;;4979681;28;20205;-92
2022/12/31 04:31:23;;;;;;;3.30;0.93;;;;;;;;;;4979929;28;20226;-93
2022/12/31 04:33:53;;;;;;;3.33;1.83;;;;;;;;;;4979362;28;20257;-92
2022/12/31 04:36:21;;;;;;;1.70;0.80;;;;;;;;;;4980009;28;20204;-91
2022/12/31 04:38:52;;;;;;;0.83;0.83;;;;;;;;;;4979798;28;20201;-94
2022/12/31 04:41:29;;;;;;;2.13;1.00;;;;;;;;;;4979402;28;20592;-92
2022/12/31 04:43:58;;;;;;;1.03;1.00;;;;;;;;;;4979871;28;20202;-91
2022/12/31 04:46:28;;;;;;;0.73;0.73;;;;;;;;;;4979871;28;20202;-91
2022/12/31 04:48:57;;;;;;;0.07;0.07;;;;;;;;;;4980777;28;20537;-90
2022/12/31 04:51:29;;;;;;;0.50;0.50;;;;;;;;;;4980091;28;20260;-93
2022/12/31 04:54:01;;;;;;;0.93;0.27;;;;;;;;;;4981373;28;20288;-93
2022/12/31 04:56:40;;;;;;;0.80;0.80;;;;;;;;;;4980875;28;20632;-92
2022/12/31 04:59:10;;;;;;;0.70;0.70;;;;;;;;;;4980612;28;20222;-92
2022/12/31 05:01:45;;;;;;;0.87;0.87;;;;;;;;;;4986720;28;20244;-92
2022/12/31 05:04:15;;;;;;;0.37;0.37;;;;;;;;;;4996928;28;20202;-92
2022/12/31 05:06:56;;;;;;;1.73;0.73;;;;;;;;;;4994449;28;20202;-91
2022/12/31 05:09:28;;;;;;;0.53;0.53;;;;;;;;;;4977853;28;20230;-92
2022/12/31 05:11:59;;;;;;;2.13;0.60;;;;;;;;;;4979231;28;20236;-89
2022/12/31 05:14:27;;;;;;;1.50;0.50;;;;;;;;;;4978514;28;20250;-90
2022/12/31 05:16:58;;;;;;;1.07;0.87;;;;;;;;;;4977261;28;20206;-93
2022/12/31 05:19:25;;;;;;;1.13;0.60;;;;;;;;;;4978324;28;20276;-91
2022/12/31 05:24:35;;;;;;;0.23;0.23;;;;;;;;;;4975986;28;20240;-92
2022/12/31 05:27:06;;;;;;;0.50;0.50;;;;;;;;;;4975689;28;20194;-91
2022/12/31 05:29:34;;;;;;;4.07;1.33;;;;;;;;;;4977383;28;20206;-92
2022/12/31 05:32:04;;;;;;;0.57;0.57;;;;;;;;;;4977684;28;20201;-91
2022/12/31 05:34:37;;;;;;;0.77;0.77;;;;;;;;;;4987672;28;20222;-92
2022/12/31 05:37:08;;;;;;;0.20;0.20;;;;;;;;;;4994502;28;20190;-91
2022/12/31 05:39:39;;;;;;;0.93;0.93;;;;;;;;;;4996116;28;20206;-91
2022/12/31 05:42:09;;;;;;;0.20;0.20;;;;;;;;;;4990826;28;20198;-91
2022/12/31 05:44:56;;;;;;;0.97;0.63;;;;;;;;;;4979631;28;20237;-92
2022/12/31 05:47:28;;;;;;;0.47;0.47;;;;;;;;;;4979971;28;20202;-91
2022/12/31 05:49:56;;;;;;;0.47;0.47;;;;;;;;;;4985545;28;21011;-92
2022/12/31 05:52:28;;;;;;;1.73;1.63;;;;;;;;;;4987308;28;20680;-90
2022/12/31 05:55:02;;;;;;;0.30;0.30;;;;;;;;;;4988845;28;20214;-90
2022/12/31 05:57:34;;;;;;;0.17;0.17;;;;;;;;;;4996346;28;20193;-88
2022/12/31 06:00:10;;;;;;;0.80;0.80;;;;;;;;;;4995830;28;20218;-92
2022/12/31 06:02:39;;;;;;;0.17;0.17;;;;;;;;;;4982706;28;20205;-90
2022/12/31 06:05:11;;;;;;;0.83;0.73;;;;;;;;;;4983711;28;20661;-91
2022/12/31 06:07:41;;;;;;;2.60;0.97;;;;;;;;;;4977121;28;20206;-94
2022/12/31 06:10:09;;;;;;;2.40;2.30;;;;;;;;;;4978457;28;20240;-92
2022/12/31 06:12:57;;;;;;;0.80;0.80;;;;;;;;;;4979004;28;20608;-92
2022/12/31 06:15:25;;;;;;;1.50;1.03;;;;;;;;;;4987632;28;20754;-91
2022/12/31 06:17:54;;;;;;;0.87;0.87;;;;;;;;;;4990869;28;20194;-92
2022/12/31 06:20:23;;;;;;;1.93;1.23;;;;;;;;;;4994216;28;20214;-89
2022/12/31 06:22:51;;;;;;;1.60;1.50;;;;;;;;;;4996207;28;20232;-92
2022/12/31 06:25:24;;;;;;;0.90;0.90;;;;;;;;;;4996579;28;20198;-91
2022/12/31 06:28:06;;;;;;;0.90;0.90;;;;;;;;;;4984459;28;20207;-90
2022/12/31 06:30:45;;;;;;;0.83;0.63;;;;;;;;;;4980372;28;20198;-91
2022/12/31 06:33:19;;;;;;;1.80;0.83;;;;;;;;;;4979265;28;20623;-93
2022/12/31 06:35:55;;;;;;;0.77;0.77;;;;;;;;;;4958663;29;20208;-93
2022/12/31 06:38:24;;;;;;;1.17;1.07;;;;;;;;;;4958502;29;20288;-93
2022/12/31 06:40:52;;;;;;;6.13;1.53;;;;;;;;;;4958794;29;20202;-93
2022/12/31 06:43:25;;;;;;;0.40;0.40;;;;;;;;;;4958666;29;20199;-93
2022/12/31 06:45:52;;;;;;;1.17;0.93;;;;;;;;;;4958246;29;20210;-94
2022/12/31 06:48:24;;;;;;;1.90;0.90;;;;;;;;;;4959379;29;20199;-93
2022/12/31 06:50:58;;;;;;;0.97;0.97;;;;;;;;;;4958935;29;20218;-93
2022/12/31 06:53:26;;;;;;;0.50;0.50;;;;;;;;;;4958844;29;20237;-93
2022/12/31 06:56:05;;;;;;;0.73;0.73;;;;;;;;;;4959698;29;20226;-93
2022/12/31 07:04:35;;;;;;;0.70;0.70;;;;;;;;;;4951968;28;20289;-92
2022/12/31 07:07:10;;;;;;;2.73;1.03;;;;;;;;;;4978331;28;20198;-93
2022/12/31 07:09:44;;;;;;;1.00;1.00;;;;;;;;;;4978162;28;20228;-95
2022/12/31 07:12:30;;;;;;;3.77;2.70;;;;;;;;;;4978659;28;20222;-93
2022/12/31 07:15:08;;;;;;;2.30;1.90;;;;;;;;;;4977702;28;20297;-93
2022/12/31 07:17:43;;;;;;;3.80;1.97;;;;;;;;;;4977924;28;20692;-92
2022/12/31 07:20:30;;;;;;;1.20;1.10;;;;;;;;;;4977685;28;20559;-92
2022/12/31 07:23:12;;;;;;;1.77;1.63;;;;;;;;;;4977132;28;20719;-94
2022/12/31 07:25:53;;;;;;;3.10;1.47;;;;;;;;;;4978372;28;20210;-96
2022/12/31 07:28:29;;;;;;;4.73;2.00;;;;;;;;;;4977398;28;20260;-95
2022/12/31 07:31:11;;;;;;;1.07;0.97;;;;;;;;;;4975764;28;20250;-96
2022/12/31 07:33:49;;;;;;;0.85;0.85;;;;;;;;;;4976788;28;20246;-94
2022/12/31 07:36:39;;;;;;;1.08;1.08;;;;;;;;;;4978846;28;20227;-92
2022/12/31 07:39:11;;;;;;;2.53;1.80;;;;;;;;;;4949106;28;20709;-93
2022/12/31 07:44:36;;;;;;;1.55;1.45;;;;;;;;;;4987143;28;20213;-93
2022/12/31 07:50:41;;;;;;;1.75;1.60;;;;;;;;;;4978946;28;20246;-94
2022/12/31 07:53:51;;;;;;;1.20;1.08;;;;;;;;;;4977521;28;20293;-94
2022/12/31 07:56:35;;;;;;;1.45;1.35;;;;;;;;;;4975760;28;20206;-95
2022/12/31 08:02:29;;;;;;;;;;;;;;;;;;;;;
2022/12/31 08:05:52;;;;;;;0.77;0.75;;;;;;;;;;4979718;28;20212;-94
2022/12/31 08:08:50;;;;;;;;;;;;;;;;;;;;;
2022/12/31 08:14:55;;;;;;;;;;;;;;;;;;;;;
2022/12/31 08:20:47;;;;;;;;;;;;;;;;;;;;;
2022/12/31 08:29:26;;;;;;;1.00;1.00;;;;;;;;;;4979559;28;20239;-96
2022/12/31 08:38:27;;;;;;;0.63;0.63;;;;;;;;;;4978296;28;20209;-94
2022/12/31 08:41:15;;;;;;;0.53;0.53;;;;;;;;;;4978837;28;20208;-93
2022/12/31 08:44:04;;;;;;;3.37;0.67;;;;;;;;;;4980292;28;20215;-92
2022/12/31 08:49:41;;;;;;;1.57;1.47;;;;;;;;;;4981676;28;20612;-94
2022/12/31 08:52:29;;;;;;;1.10;0.77;;;;;;;;;;4981985;28;20197;-94
2022/12/31 08:55:16;;;;;;;0.50;0.50;;;;;;;;;;4981722;28;20266;-94
2022/12/31 08:58:05;;;;;;;4.30;2.13;;;;;;;;;;4984544;28;20211;-93
2022/12/31 09:00:51;;;;;;;0.37;0.37;;;;;;;;;;4984273;28;20608;-94
2022/12/31 09:03:39;;;;;;;2.20;0.50;;;;;;;;;;4984367;28;20209;-93
2022/12/31 09:06:29;;;;;;;0.87;0.87;;;;;;;;;;4983191;28;20219;-93
2022/12/31 09:09:21;;;;;;;1.40;1.30;;;;;;;;;;4979713;28;20232;-93
2022/12/31 09:12:03;;;;;;;0.90;0.87;;;;;;;;;;4964407;29;20267;-94
2022/12/31 09:14:42;;;;;;;1.63;1.53;;;;;;;;;;4959912;29;20705;-93
2022/12/31 09:17:18;;;;;;;1.87;1.30;;;;;;;;;;4959910;29;20210;-93
2022/12/31 09:22:38;;;;;;;0.38;0.38;;;;;;;;;;4909548;29;20203;-93
2022/12/31 09:25:31;;;;;;;2.83;0.80;;;;;;;;;;4976125;29;20203;-90
2022/12/31 09:28:07;;;;;;;1.27;1.17;;;;;;;;;;4974089;28;20322;-90
2022/12/31 09:33:43;;;;;;;0.95;0.57;;;;;;;;;;4960390;29;20207;-91
2022/12/31 09:36:35;;;;;;;;;;;;;;;;;;;;;
2022/12/31 09:42:26;;;;;;;0.95;0.65;;;;;;;;;;4953767;28;20198;-91
2022/12/31 09:45:24;;;;;;;1.45;1.38;;;;;;;;;;4954652;29;20261;-90
2022/12/31 09:48:13;;;;;;;0.20;0.20;;;;;;;;;;4972826;28;20262;-93
2022/12/31 09:51:15;;;;;;;;;;;;;;;;;;;;;
2022/12/31 09:54:04;;;;;;;1.07;1.07;;;;;;;;;;4946461;28;20210;-93
2022/12/31 09:56:40;;;;;;;0.97;0.97;;;;;;;;;;4964031;28;20282;-94
2022/12/31 09:59:49;;;;;;;;;;;;;;;;;;;;;
2022/12/31 10:09:01;;;;;;;1.85;1.75;;;;;;;;;;5022464;23;20255;-96
2022/12/31 10:15:07;;;;;;;1.20;0.93;;;;;;;;;;4972859;28;20208;-93
2022/12/31 10:20:56;;;;;;;0.52;0.52;;;;;;;;;;4955078;28;20245;-95
2022/12/31 10:35:58;;;;;;;0.95;0.60;;;;;;;;;;5077154;23;20242;-96
2022/12/31 10:41:56;;;;;;;3.47;1.40;;;;;;;;;;4964879;28;20238;-89
2022/12/31 10:44:50;;;;;;;1.23;1.23;;;;;;;;;;4980624;28;20246;-91
2022/12/31 10:48:10;;;;;;;4.53;3.13;;;;;;;;;;4991595;28;20447;-90
2022/12/31 10:51:03;;;;;;;1.33;1.23;;;;;;;;;;4991552;28;20228;-90
2022/12/31 10:53:55;;;;;;;1.38;0.90;;;;;;;;;;5038083;23;20277;-91
2022/12/31 10:56:50;;;;;;;1.02;1.02;;;;;;;;;;4956223;28;20293;-90
2022/12/31 10:59:45;;;;;;;1.05;1.05;;;;;;;;;;4945339;29;20228;-91
2022/12/31 11:10:53;;;;;;;1.55;1.55;;;;;;;;;;5032889;23;20248;-92
2022/12/31 11:13:54;;;;;;;1.67;1.58;;;;;;;;;;4995359;28;20230;-90
2022/12/31 11:42:50;;;;;;;2.72;2.30;;;;;;;;;;5117213;28;20225;-93
2022/12/31 11:45:49;;;;;;;1.35;1.33;;;;;;;;;;5117373;28;20234;-91
2022/12/31 11:51:26;;;;;;;1.77;1.60;;;;;;;;;;5336142;22;20245;-94
2022/12/31 11:57:25;;;;;;;3.80;2.83;;;;;;;;;;5108681;28;20455;-93
2022/12/31 12:02:49;;;;;;;1.85;1.40;;;;;;;;;;5118524;28;20239;-90
2022/12/31 12:05:26;;;;;;;1.55;1.45;;;;;;;;;;5128831;28;20399;-90
2022/12/31 12:07:57;;;;;;;1.73;1.65;;;;;;;;;;5111871;28;20224;-92
2022/12/31 12:10:31;;;;;;;1.88;1.75;;;;;;;;;;5113757;28;20231;-91
2022/12/31 12:13:10;;;;;;;4.18;2.30;;;;;;;;;;5106040;28;20763;-91
2022/12/31 12:15:46;;;;;;;2.15;1.90;;;;;;;;;;5119780;28;20230;-91
2022/12/31 12:18:36;;;;;;;2.20;2.10;;;;;;;;;;5120997;28;20443;-93
2022/12/31 12:33:16;;;;;;;0.97;0.97;;;;;;;;;;5047841;28;20239;-95
2022/12/31 12:45:43;;;;;;;1.30;1.25;;;;;;;;;;5013660;28;20247;-94
2022/12/31 13:12:46;;;;;;;6.95;3.35;;;;;;;;;;5053850;28;20221;-93
2022/12/31 13:15:42;;;;;;;3.65;0.90;;;;;;;;;;5056769;28;20235;-94
2022/12/31 13:18:34;;;;;;;2.60;2.05;;;;;;;;;;5055455;28;20224;-94
2022/12/31 13:24:39;;;;;;;1.85;1.75;;;;;;;;;;5042905;28;20327;-92
2022/12/31 13:27:11;;;;;;;3.28;1.55;;;;;;;;;;5036022;28;20311;-91
2022/12/31 13:29:40;;;;;;;2.15;1.95;;;;;;;;;;5028899;28;20290;-90
2022/12/31 13:32:13;;;;;;;1.90;1.50;;;;;;;;;;5033252;28;20247;-91
2022/12/31 13:34:52;;;;;;;11.70;4.60;;;;;;;;;;5031354;28;20233;-93
2022/12/31 13:37:25;;;;;;;6.33;1.27;;;;;;;;;;5035482;28;20224;-92
2022/12/31 13:40:04;;;;;;;7.03;1.73;;;;;;;;;;5034354;28;20246;-94
2022/12/31 13:42:37;;;;;;;4.23;1.23;;;;;;;;;;5027196;28;20233;-93
2022/12/31 13:45:12;;;;;;;7.00;2.07;;;;;;;;;;5034673;28;20332;-93
2022/12/31 13:47:43;;;;;;;3.50;2.40;;;;;;;;;;5043729;28;20308;-93
2022/12/31 13:50:29;;;;;;;10.40;3.53;;;;;;;;;;5042853;28;20314;-92
2022/12/31 13:53:05;;;;;;;4.07;3.77;;;;;;;;;;5056403;28;20733;-91
2022/12/31 13:55:40;;;;;;;3.10;2.90;;;;;;;;;;5056283;28;20227;-90
2022/12/31 13:58:26;;;;;;;4.30;3.20;;;;;;;;;;5053710;28;20463;-93
2022/12/31 14:01:02;;;;;;;2.73;2.63;;;;;;;;;;5029881;28;20216;-92
2022/12/31 14:03:35;;;;;;;13.83;2.97;;;;;;;;;;5023371;28;20233;-90
2022/12/31 14:06:09;;;;;;;3.80;1.40;;;;;;;;;;5038182;28;20236;-92
2022/12/31 14:08:43;;;;;;;4.93;1.80;;;;;;;;;;5032635;28;20233;-92
2022/12/31 14:11:30;;;;;;;1.37;1.27;;;;;;;;;;5036323;28;20630;-92
2022/12/31 14:14:08;;;;;;;4.37;4.07;;;;;;;;;;5063644;28;20232;-89
2022/12/31 14:16:41;;;;;;;13.60;4.33;;;;;;;;;;5039609;28;20228;-89
2022/12/31 14:19:17;;;;;;;4.73;3.10;;;;;;;;;;5034937;28;20624;-90
2022/12/31 14:21:55;;;;;;;2.20;0.80;;;;;;;;;;5030924;28;20221;-90
2022/12/31 14:24:33;;;;;;;2.17;1.90;;;;;;;;;;5028027;28;20235;-89
2022/12/31 14:27:04;;;;;;;3.40;2.00;;;;;;;;;;5044575;28;20251;-90
2022/12/31 14:29:36;;;;;;;4.27;2.40;;;;;;;;;;5030507;28;20666;-90
2022/12/31 14:32:26;;;;;;;2.43;2.23;;;;;;;;;;5021489;28;20311;-89
2022/12/31 14:35:00;;;;;;;10.57;4.00;;;;;;;;;;5014604;28;20255;-90
2022/12/31 14:37:32;;;;;;;9.43;6.20;;;;;;;;;;5006372;28;20231;-90
2022/12/31 14:40:02;;;;;;;7.77;4.70;;;;;;;;;;5026044;28;20238;-90
2022/12/31 14:42:38;;;;;;;8.10;3.33;;;;;;;;;;5020190;28;20241;-90
2022/12/31 14:45:16;;;;;;;6.27;4.13;;;;;;;;;;5013434;28;20739;-89
2022/12/31 14:47:49;;;;;;;6.73;3.40;;;;;;;;;;5016331;28;20621;-90
2022/12/31 14:50:26;;;;;;;4.80;3.10;;;;;;;;;;5015866;28;20235;-90
2022/12/31 14:52:59;;;;;;;2.30;2.17;;;;;;;;;;5017696;28;20228;-88
2022/12/31 14:58:25;;;;;;;5.67;3.00;;;;;;;;;;5017420;28;20784;-89
2022/12/31 15:01:07;;;;;;;2.00;1.07;;;;;;;;;;5012334;28;20702;-88
2022/12/31 15:03:36;;;;;;;2.03;1.70;;;;;;;;;;5021054;28;20678;-89
2022/12/31 15:06:14;;;;;;;4.20;3.13;;;;;;;;;;5032609;28;20305;-90
2022/12/31 15:09:03;;;;;;;3.23;2.17;;;;;;;;;;5021218;28;20347;-90
2022/12/31 15:11:44;;;;;;;8.90;3.80;;;;;;;;;;5028042;28;20326;-88
2022/12/31 15:14:33;;;;;;;7.23;6.33;;;;;;;;;;5017295;28;20249;-90
2022/12/31 15:17:06;;;;;;;2.30;2.20;;;;;;;;;;5016716;28;20252;-87
2022/12/31 15:19:45;;;;;;;2.47;2.27;;;;;;;;;;5012591;28;20225;-87
2022/12/31 15:22:24;;;;;;;2.83;2.13;;;;;;;;;;5014868;28;20610;-87
2022/12/31 15:24:52;;;;;;;4.20;2.10;;;;;;;;;;5018992;28;20256;-87
2022/12/31 15:27:31;;;;;;;3.03;1.80;;;;;;;;;;5026118;28;20227;-86
2022/12/31 15:29:59;;;;;;;1.53;1.43;;;;;;;;;;5020093;28;20235;-87
2022/12/31 15:32:31;;;;;;;3.30;2.03;;;;;;;;;;5021892;28;20246;-86
2022/12/31 15:35:02;;;;;;;3.33;2.00;;;;;;;;;;5023659;28;20242;-89
2022/12/31 15:37:42;;;;;;;2.00;1.93;;;;;;;;;;5021565;28;20232;-89
2022/12/31 15:40:23;;;;;;;2.60;1.57;;;;;;;;;;5029591;28;20254;-88
2022/12/31 15:42:58;;;;;;;1.67;0.80;;;;;;;;;;5039683;28;20223;-89
2022/12/31 15:45:32;;;;;;;5.37;1.40;;;;;;;;;;5025509;28;20266;-90
2022/12/31 15:48:03;;;;;;;3.03;1.37;;;;;;;;;;5025259;28;20247;-90
2022/12/31 15:50:32;;;;;;;3.60;1.33;;;;;;;;;;5022028;28;20216;-89
2022/12/31 15:53:02;;;;;;;10.13;3.10;;;;;;;;;;5021077;28;20227;-88
2022/12/31 15:55:33;;;;;;;5.63;3.57;;;;;;;;;;5024039;28;20223;-88
2022/12/31 15:58:03;;;;;;;4.00;2.50;;;;;;;;;;5035064;28;20231;-89
2022/12/31 16:00:38;;;;;;;3.20;2.07;;;;;;;;;;5036578;28;20221;-90
2022/12/31 16:03:27;;;;;;;7.77;3.77;;;;;;;;;;5013797;28;20228;-89
2022/12/31 16:05:57;;;;;;;2.47;1.97;;;;;;;;;;5018385;28;21981;-89
2022/12/31 16:08:47;;;;;;;7.27;3.10;;;;;;;;;;5027673;28;20236;-89
2022/12/31 16:11:17;;;;;;;1.20;1.20;;;;;;;;;;5019347;28;20228;-89
2022/12/31 16:13:49;;;;;;;1.23;0.77;;;;;;;;;;5020683;28;20255;-90
2022/12/31 16:19:24;;;;;;;2.17;1.57;;;;;;;;;;5037980;28;20227;-89
2022/12/31 16:21:55;;;;;;;3.83;1.93;;;;;;;;;;5039527;28;20203;-88
2022/12/31 16:24:27;;;;;;;0.73;0.73;;;;;;;;;;5031427;28;20215;-88
2022/12/31 16:27:23;;;;;;;1.77;0.87;;;;;;;;;;5041977;28;20206;-85
2022/12/31 16:29:57;;;;;;;1.00;1.00;;;;;;;;;;5040965;28;20204;-90
2022/12/31 16:32:25;;;;;;;1.87;1.30;;;;;;;;;;5041592;28;20230;-88
2022/12/31 16:34:53;;;;;;;3.30;1.43;;;;;;;;;;5054718;28;20199;-89
2022/12/31 16:37:21;;;;;;;1.60;1.50;;;;;;;;;;5043461;28;20200;-88
2022/12/31 16:40:07;;;;;;;6.40;1.77;;;;;;;;;;5042267;28;20210;-89
2022/12/31 16:42:51;;;;;;;2.20;0.90;;;;;;;;;;5041784;28;20196;-91
2022/12/31 16:45:24;;;;;;;5.27;3.37;;;;;;;;;;5026984;28;20273;-88
2022/12/31 16:47:51;;;;;;;8.53;4.37;;;;;;;;;;5043488;28;20204;-89
2022/12/31 16:50:21;;;;;;;10.33;8.40;;;;;;;;;;5041242;28;20710;-90
2022/12/31 16:52:50;;;;;;;9.03;6.83;;;;;;;;;;5040563;28;20661;-90
2022/12/31 16:55:19;;;;;;;6.87;2.60;;;;;;;;;;5038352;28;20263;-90
2022/12/31 16:57:52;;;;;;;1.90;1.57;;;;;;;;;;5039461;28;20196;-89
2022/12/31 17:00:21;;;;;;;3.33;2.37;;;;;;;;;;5041757;28;20210;-88
2022/12/31 17:02:50;;;;;;;1.87;1.80;;;;;;;;;;5047161;28;20216;-89
2022/12/31 17:05:23;;;;;;;2.03;1.93;;;;;;;;;;5046296;28;20305;-87
2022/12/31 17:07:51;;;;;;;3.00;2.80;;;;;;;;;;5048832;28;20215;-87
2022/12/31 17:10:23;;;;;;;3.43;3.13;;;;;;;;;;5051602;28;20216;-88
2022/12/31 17:12:55;;;;;;;8.00;3.97;;;;;;;;;;5042525;28;20250;-87
2022/12/31 17:15:24;;;;;;;7.30;3.30;;;;;;;;;;5036262;28;20685;-89
2022/12/31 17:17:56;;;;;;;10.97;5.27;;;;;;;;;;5039714;28;20275;-89
2022/12/31 17:20:25;;;;;;;7.10;5.67;;;;;;;;;;5038843;28;20669;-88
2022/12/31 17:22:54;;;;;;;13.17;6.27;;;;;;;;;;5036806;28;20639;-90
2022/12/31 17:25:25;;;;;;;6.47;5.30;;;;;;;;;;5037867;28;20232;-88
2022/12/31 17:27:56;;;;;;;5.40;3.77;;;;;;;;;;5042749;28;20256;-87
2022/12/31 17:30:35;;;;;;;4.43;2.83;;;;;;;;;;5038745;28;20207;-88
2022/12/31 17:33:03;;;;;;;5.23;4.47;;;;;;;;;;5037613;28;20708;-90
2022/12/31 17:35:31;;;;;;;4.40;3.90;;;;;;;;;;5037737;28;20212;-88
2022/12/31 17:38:14;;;;;;;4.77;4.33;;;;;;;;;;5039970;28;20204;-88
2022/12/31 17:40:42;;;;;;;9.53;4.33;;;;;;;;;;5037308;28;20207;-88
2022/12/31 17:43:15;;;;;;;5.20;3.87;;;;;;;;;;5041113;28;20271;-89
2022/12/31 17:45:56;;;;;;;3.13;2.93;;;;;;;;;;5044666;28;20280;-90
2022/12/31 17:48:24;;;;;;;6.07;4.63;;;;;;;;;;5040264;28;20237;-89
2022/12/31 17:50:53;;;;;;;3.67;3.57;;;;;;;;;;5039074;28;20257;-88
2022/12/31 17:53:21;;;;;;;4.63;3.33;;;;;;;;;;5036902;28;20240;-88
2022/12/31 17:55:50;;;;;;;4.87;2.70;;;;;;;;;;5048827;28;20200;-88
2022/12/31 17:58:26;;;;;;;4.77;3.10;;;;;;;;;;5042348;28;20216;-89
2022/12/31 18:00:55;;;;;;;5.90;5.30;;;;;;;;;;5037099;28;20337;-89
2022/12/31 18:03:22;;;;;;;8.83;4.03;;;;;;;;;;5037697;28;20192;-90
2022/12/31 18:05:55;;;;;;;4.00;3.07;;;;;;;;;;5041603;28;20247;-89
2022/12/31 18:08:23;;;;;;;4.10;3.73;;;;;;;;;;5044101;28;20188;-88
2022/12/31 18:10:51;;;;;;;2.43;2.23;;;;;;;;;;5036429;28;20199;-90
2022/12/31 18:13:23;;;;;;;6.23;3.50;;;;;;;;;;5036302;28;20652;-88
2022/12/31 18:15:51;;;;;;;4.03;3.70;;;;;;;;;;5037111;28;20689;-88
2022/12/31 18:18:20;;;;;;;9.63;5.77;;;;;;;;;;5055245;28;20642;-86
2022/12/31 18:20:49;;;;;;;11.57;7.27;;;;;;;;;;5042966;28;20211;-89
2022/12/31 18:23:19;;;;;;;12.67;9.03;;;;;;;;;;5034696;28;20614;-90
2022/12/31 18:25:47;;;;;;;12.93;6.90;;;;;;;;;;5033867;28;20238;-88
2022/12/31 18:28:15;;;;;;;3.57;3.27;;;;;;;;;;5033511;28;20215;-87
2022/12/31 18:30:44;;;;;;;2.17;1.40;;;;;;;;;;5020329;28;20236;-88
2022/12/31 18:33:13;;;;;;;2.20;2.10;;;;;;;;;;5034239;28;20235;-88
2022/12/31 18:35:42;;;;;;;3.03;2.13;;;;;;;;;;5038673;28;20238;-86
2022/12/31 18:38:12;;;;;;;4.20;2.97;;;;;;;;;;5032374;28;20258;-87
2022/12/31 18:40:42;;;;;;;8.97;4.13;;;;;;;;;;5034379;28;20311;-87
2022/12/31 18:43:13;;;;;;;6.63;4.13;;;;;;;;;;5037654;28;20231;-88
2022/12/31 18:45:41;;;;;;;4.17;2.67;;;;;;;;;;5037550;28;20381;-88
2022/12/31 18:48:10;;;;;;;8.50;5.47;;;;;;;;;;5052391;28;20227;-89
2022/12/31 18:50:37;;;;;;;4.87;4.53;;;;;;;;;;5051640;28;20241;-88
2022/12/31 18:53:04;;;;;;;3.97;3.73;;;;;;;;;;5042725;28;20617;-88
2022/12/31 18:55:34;;;;;;;4.93;3.13;;;;;;;;;;5040007;28;20227;-89
2022/12/31 18:58:04;;;;;;;3.33;2.97;;;;;;;;;;5045626;28;20284;-87
2022/12/31 19:00:32;;;;;;;4.77;3.80;;;;;;;;;;5029708;28;20231;-90
2022/12/31 19:03:00;;;;;;;3.57;2.90;;;;;;;;;;5025511;28;20314;-88